createdAt,value
2023-05-02T00:00:40.828Z,11.71
2023-05-02T00:03:18.801Z,11.69
2023-05-02T00:05:49.651Z,11.68
2023-05-02T00:08:20.204Z,11.67
2023-05-02T00:10:50.709Z,11.65
2023-05-02T00:13:21.198Z,11.64
2023-05-02T00:15:51.740Z,11.62
2023-05-02T00:18:22.339Z,11.60
2023-05-02T00:20:52.938Z,11.59
2023-05-02T00:23:24.038Z,11.57
2023-05-02T00:25:54.601Z,11.57
2023-05-02T00:28:26.685Z,11.56
2023-05-02T00:30:57.307Z,11.56
2023-05-02T00:33:27.907Z,11.54
2023-05-02T00:35:58.737Z,11.51
2023-05-02T00:38:29.321Z,11.48
2023-05-02T00:40:59.931Z,11.47
2023-05-02T00:43:33.046Z,11.47
2023-05-02T00:46:03.803Z,11.48
2023-05-02T00:48:34.728Z,11.49
2023-05-02T00:51:06.558Z,11.48
2023-05-02T00:53:37.869Z,11.47
2023-05-02T00:56:09.063Z,11.47
2023-05-02T00:58:40.062Z,11.47
2023-05-02T01:01:27.968Z,11.47
2023-05-02T01:04:05.766Z,11.46
2023-05-02T01:06:41.529Z,11.46
2023-05-02T01:09:19.475Z,11.46
2023-05-02T01:11:53.855Z,11.45
2023-05-02T01:14:25.602Z,11.46
2023-05-02T01:16:58.334Z,11.48
2023-05-02T01:19:32.715Z,11.49
2023-05-02T01:22:04.692Z,11.49
2023-05-02T01:24:40.092Z,11.48
2023-05-02T01:27:17.138Z,11.48
2023-05-02T01:29:50.707Z,11.48
2023-05-02T01:32:23.388Z,11.48
2023-05-02T01:34:55.356Z,11.49
2023-05-02T01:37:27.304Z,11.51
2023-05-02T01:39:59.093Z,11.52
2023-05-02T01:42:30.623Z,11.53
2023-05-02T01:45:01.640Z,11.53
2023-05-02T01:47:34.722Z,11.54
2023-05-02T01:50:08.000Z,11.53
2023-05-02T01:52:39.752Z,11.52
2023-05-02T01:55:13.413Z,11.51
2023-05-02T01:57:45.194Z,11.49
2023-05-02T02:00:17.548Z,11.47
2023-05-02T02:02:50.110Z,11.44
2023-05-02T02:05:21.386Z,11.39
2023-05-02T02:07:52.051Z,11.35
2023-05-02T02:10:23.832Z,11.34
2023-05-02T02:13:00.191Z,11.32
2023-05-02T02:15:33.648Z,11.31
2023-05-02T02:18:09.341Z,11.30
2023-05-02T02:20:41.858Z,11.27
2023-05-02T02:23:13.298Z,11.25
2023-05-02T02:25:44.917Z,11.24
2023-05-02T02:28:15.424Z,11.21
2023-05-02T02:30:46.012Z,11.19
2023-05-02T02:33:16.536Z,11.18
2023-05-02T02:36:00.983Z,11.17
2023-05-02T02:38:39.291Z,11.15
2023-05-02T02:41:13.696Z,11.13
2023-05-02T02:43:49.319Z,11.12
2023-05-02T02:46:27.498Z,11.10
2023-05-02T02:49:03.356Z,11.09
2023-05-02T02:51:39.696Z,11.08
2023-05-02T02:54:25.773Z,11.05
2023-05-02T02:57:02.855Z,11.01
2023-05-02T02:59:35.283Z,10.98
2023-05-02T03:02:08.496Z,10.97
2023-05-02T03:04:40.075Z,10.96
2023-05-02T03:07:10.716Z,10.96
2023-05-02T03:09:46.010Z,10.96
2023-05-02T03:12:19.160Z,10.97
2023-05-02T03:14:49.716Z,10.98
2023-05-02T03:17:21.051Z,10.97
2023-05-02T03:19:51.569Z,10.96
2023-05-02T03:22:22.704Z,10.96
2023-05-02T03:24:53.954Z,10.96
2023-05-02T03:27:24.559Z,10.95
2023-05-02T03:29:56.108Z,10.95
2023-05-02T03:32:27.974Z,10.95
2023-05-02T03:34:59.523Z,10.93
2023-05-02T03:37:31.875Z,10.93
2023-05-02T03:40:03.851Z,10.93
2023-05-02T03:42:40.051Z,10.92
2023-05-02T03:45:12.084Z,10.92
2023-05-02T03:47:42.804Z,10.91
2023-05-02T03:50:13.587Z,10.92
2023-05-02T03:52:44.753Z,10.92
2023-05-02T03:55:16.999Z,10.93
2023-05-02T03:57:47.936Z,10.96
2023-05-02T04:00:18.780Z,10.95
2023-05-02T04:02:53.372Z,10.97
2023-05-02T04:05:27.006Z,11.01
2023-05-02T04:07:57.931Z,11.03
2023-05-02T04:10:29.036Z,11.01
2023-05-02T04:13:03.232Z,11.01
2023-05-02T04:15:34.502Z,11.02
2023-05-02T04:18:05.475Z,11.03
2023-05-02T04:20:36.917Z,11.03
2023-05-02T04:23:08.172Z,11.05
2023-05-02T04:25:38.788Z,11.07
2023-05-02T04:28:09.557Z,11.09
2023-05-02T04:30:40.107Z,11.12
2023-05-02T04:33:14.146Z,11.15
2023-05-02T04:35:44.803Z,11.17
2023-05-02T04:38:17.796Z,11.20
2023-05-02T04:40:51.288Z,11.24
2023-05-02T04:43:25.010Z,11.28
2023-05-02T04:46:02.650Z,11.31
2023-05-02T04:48:37.386Z,11.35
2023-05-02T04:51:08.242Z,11.38
2023-05-02T04:53:39.068Z,11.40
2023-05-02T04:56:09.918Z,11.43
2023-05-02T04:58:41.638Z,11.44
2023-05-02T05:01:13.593Z,11.46
2023-05-02T05:03:44.717Z,11.49
2023-05-02T05:06:19.499Z,11.51
2023-05-02T05:08:50.726Z,11.55
2023-05-02T05:11:21.489Z,11.59
2023-05-02T05:13:52.010Z,11.61
2023-05-02T05:16:22.847Z,11.63
2023-05-02T05:18:54.729Z,11.66
2023-05-02T05:21:25.292Z,11.68
2023-05-02T05:23:55.900Z,11.70
2023-05-02T05:26:29.808Z,11.72
2023-05-02T05:29:00.901Z,11.74
2023-05-02T05:31:36.406Z,11.77
2023-05-02T05:34:07.427Z,11.81
2023-05-02T05:36:40.784Z,11.83
2023-05-02T05:39:11.494Z,11.85
2023-05-02T05:41:43.516Z,11.89
2023-05-02T05:44:15.600Z,11.95
2023-05-02T05:46:47.713Z,12.01
2023-05-02T05:49:18.637Z,12.06
2023-05-02T05:51:50.057Z,12.12
2023-05-02T05:54:21.678Z,12.16
2023-05-02T05:56:52.528Z,12.22
2023-05-02T05:59:23.934Z,12.30
2023-05-02T06:01:54.771Z,12.38
2023-05-02T06:04:27.093Z,12.45
2023-05-02T06:06:58.102Z,12.49
2023-05-02T06:09:29.113Z,12.54
2023-05-02T06:11:59.822Z,12.58
2023-05-02T06:14:31.000Z,12.62
2023-05-02T06:17:02.117Z,12.65
2023-05-02T06:19:32.709Z,12.70
2023-05-02T06:22:03.482Z,12.74
2023-05-02T06:24:34.295Z,12.78
2023-05-02T06:27:04.954Z,12.82
2023-05-02T06:29:35.498Z,12.86
2023-05-02T06:32:06.670Z,12.90
2023-05-02T06:34:37.410Z,12.94
2023-05-02T06:37:07.923Z,12.95
2023-05-02T06:39:38.554Z,13.00
2023-05-02T06:42:09.047Z,13.05
2023-05-02T06:44:39.636Z,13.09
2023-05-02T06:47:10.313Z,13.14
2023-05-02T06:49:41.010Z,13.19
2023-05-02T06:52:11.541Z,13.25
2023-05-02T06:54:42.538Z,13.27
2023-05-02T06:57:13.087Z,13.31
2023-05-02T06:59:43.618Z,13.34
2023-05-02T07:02:14.100Z,13.37
2023-05-02T07:04:44.716Z,13.39
2023-05-02T07:07:18.761Z,13.42
2023-05-02T07:09:49.977Z,13.43
2023-05-02T07:12:21.002Z,13.45
2023-05-02T07:14:51.510Z,13.48
2023-05-02T07:17:22.660Z,13.51
2023-05-02T07:19:53.500Z,13.53
2023-05-02T07:22:24.121Z,13.55
2023-05-02T07:25:00.289Z,13.58
2023-05-02T07:27:30.828Z,13.60
2023-05-02T07:30:01.748Z,13.63
2023-05-02T07:32:33.222Z,13.66
2023-05-02T07:35:03.904Z,13.69
2023-05-02T07:37:35.459Z,13.71
2023-05-02T07:40:08.025Z,13.71
2023-05-02T07:42:38.669Z,13.75
2023-05-02T07:45:11.079Z,13.81
2023-05-02T07:47:42.028Z,13.85
2023-05-02T07:50:13.979Z,13.89
2023-05-02T07:52:44.555Z,13.92
2023-05-02T07:55:15.391Z,13.94
2023-05-02T07:57:46.050Z,13.97
2023-05-02T08:00:18.523Z,13.97
2023-05-02T08:02:49.107Z,13.98
2023-05-02T08:05:19.749Z,13.99
2023-05-02T08:07:50.315Z,14.01
2023-05-02T08:10:24.249Z,14.01
2023-05-02T08:12:55.295Z,14.00
2023-05-02T08:15:26.056Z,13.98
2023-05-02T08:17:56.573Z,13.99
2023-05-02T08:20:27.177Z,13.98
2023-05-02T08:22:59.883Z,13.98
2023-05-02T08:25:31.148Z,13.96
2023-05-02T08:28:01.719Z,13.93
2023-05-02T08:30:32.592Z,13.92
2023-05-02T08:33:03.199Z,13.91
2023-05-02T08:35:33.800Z,13.90
2023-05-02T08:38:04.302Z,13.89
2023-05-02T08:40:42.102Z,13.87
2023-05-02T08:43:14.328Z,13.86
2023-05-02T08:45:45.587Z,13.86
2023-05-02T08:48:17.956Z,13.84
2023-05-02T08:50:49.799Z,13.84
2023-05-02T08:53:20.692Z,13.84
2023-05-02T08:55:51.663Z,13.85
2023-05-02T08:58:22.163Z,13.87
2023-05-02T09:00:53.705Z,13.91
2023-05-02T09:03:29.317Z,13.94
2023-05-02T09:06:05.726Z,13.95
2023-05-02T09:08:36.385Z,13.95
2023-05-02T09:11:07.653Z,13.94
2023-05-02T09:13:39.317Z,13.93
2023-05-02T09:16:10.847Z,13.93
2023-05-02T09:18:42.236Z,13.92
2023-05-02T09:21:13.603Z,13.91
2023-05-02T09:23:46.269Z,13.90
2023-05-02T09:26:18.262Z,13.88
2023-05-02T09:28:49.709Z,13.86
2023-05-02T09:31:43.855Z,13.87
2023-05-02T09:34:12.849Z,13.88
2023-05-02T09:36:44.574Z,13.89
2023-05-02T09:39:16.540Z,13.89
2023-05-02T09:41:48.093Z,13.87
2023-05-02T09:44:19.762Z,13.84
2023-05-02T09:46:50.830Z,13.82
2023-05-02T09:49:39.685Z,13.82
2023-05-02T09:52:13.579Z,13.81
2023-05-02T09:54:44.549Z,13.81
2023-05-02T09:57:15.278Z,13.83
2023-05-02T09:59:58.206Z,13.85
2023-05-02T10:02:31.586Z,13.85
2023-05-02T10:05:03.391Z,13.87
2023-05-02T10:07:34.760Z,13.89
2023-05-02T10:10:05.593Z,13.90
2023-05-02T10:12:36.170Z,13.93
2023-05-02T10:15:09.541Z,13.97
2023-05-02T10:17:43.295Z,14.02
2023-05-02T10:20:17.201Z,14.09
2023-05-02T10:22:48.864Z,14.16
2023-05-02T10:25:19.858Z,14.27
2023-05-02T10:27:51.554Z,14.49
2023-05-02T10:30:22.321Z,14.75
2023-05-02T10:32:53.459Z,15.00
2023-05-02T10:35:24.369Z,15.26
2023-05-02T10:37:55.322Z,15.51
2023-05-02T10:40:26.025Z,15.73
2023-05-02T10:42:56.981Z,15.93
2023-05-02T10:45:34.442Z,16.09
2023-05-02T10:48:17.801Z,16.29
2023-05-02T10:50:51.187Z,16.46
2023-05-02T10:53:28.647Z,16.62
2023-05-02T10:56:18.861Z,16.79
2023-05-02T10:58:50.339Z,16.97
2023-05-02T11:01:38.214Z,17.17
2023-05-02T11:04:09.750Z,17.31
2023-05-02T11:07:00.578Z,17.41
2023-05-02T11:09:35.400Z,17.51
2023-05-02T11:12:06.561Z,17.61
2023-05-02T11:14:52.667Z,17.68
2023-05-02T11:17:23.537Z,17.78
2023-05-02T11:20:28.520Z,17.85
2023-05-02T11:22:59.945Z,17.89
2023-05-02T11:25:41.808Z,17.94
2023-05-02T11:28:39.583Z,17.97
2023-05-02T11:31:11.001Z,18.01
2023-05-02T11:33:41.486Z,18.04
2023-05-02T11:36:12.189Z,18.07
2023-05-02T11:38:42.704Z,18.13
2023-05-02T11:41:13.703Z,18.18
2023-05-02T11:43:44.208Z,18.25
2023-05-02T11:46:14.999Z,18.33
2023-05-02T11:48:45.712Z,18.39
2023-05-02T11:51:24.252Z,18.40
2023-05-02T11:53:54.824Z,18.42
2023-05-02T11:56:26.678Z,18.44
2023-05-02T11:59:01.200Z,18.42
2023-05-02T12:01:32.039Z,18.39
2023-05-02T12:04:07.301Z,18.40
2023-05-02T12:06:38.276Z,18.49
2023-05-02T12:09:09.517Z,18.56
2023-05-02T12:11:40.195Z,18.61
2023-05-02T12:14:11.167Z,18.64
2023-05-02T12:16:42.778Z,18.63
2023-05-02T12:19:14.481Z,18.63
2023-05-02T12:21:45.136Z,18.55
2023-05-02T12:24:15.933Z,18.44
2023-05-02T12:26:46.480Z,18.33
2023-05-02T12:29:17.156Z,18.26
2023-05-02T12:31:53.512Z,18.25
2023-05-02T12:34:34.856Z,18.27
2023-05-02T12:37:05.714Z,18.30
2023-05-02T12:39:39.858Z,18.30
2023-05-02T12:42:14.288Z,18.29
2023-05-02T12:44:46.525Z,18.27
2023-05-02T12:47:18.093Z,18.22
2023-05-02T12:49:52.580Z,18.19
2023-05-02T12:52:43.180Z,18.20
2023-05-02T12:55:20.491Z,18.23
2023-05-02T12:57:51.370Z,18.28
2023-05-02T13:00:22.198Z,18.31
2023-05-02T13:02:53.080Z,18.34
2023-05-02T13:05:23.947Z,18.35
2023-05-02T13:07:56.633Z,18.38
2023-05-02T13:10:27.414Z,18.39
2023-05-02T13:12:57.973Z,18.40
2023-05-02T13:15:28.687Z,18.41
2023-05-02T13:17:59.588Z,18.40
2023-05-02T13:20:30.215Z,18.39
2023-05-02T13:23:00.724Z,18.37
2023-05-02T13:25:31.253Z,18.34
2023-05-02T13:28:01.747Z,18.28
2023-05-02T13:30:32.253Z,18.23
2023-05-02T13:33:02.837Z,18.19
2023-05-02T13:35:34.759Z,18.16
2023-05-02T13:38:06.334Z,18.13
2023-05-02T13:40:36.911Z,18.13
2023-05-02T13:43:07.515Z,18.15
2023-05-02T13:45:38.150Z,18.16
2023-05-02T13:48:09.025Z,18.17
2023-05-02T13:50:39.626Z,18.17
2023-05-02T13:53:10.210Z,18.18
2023-05-02T13:55:40.959Z,18.16
2023-05-02T13:58:11.532Z,18.14
2023-05-02T14:00:42.018Z,18.09
2023-05-02T14:03:13.623Z,18.06
2023-05-02T14:05:44.836Z,18.02
2023-05-02T14:08:18.578Z,17.98
2023-05-02T14:10:49.193Z,17.94
2023-05-02T14:13:19.928Z,17.92
2023-05-02T14:15:50.451Z,17.91
2023-05-02T14:18:21.036Z,17.91
2023-05-02T14:23:28.458Z,17.93
2023-05-02T14:25:59.031Z,17.88
2023-05-02T14:28:29.552Z,17.85
2023-05-02T14:31:00.052Z,17.82
2023-05-02T14:33:30.659Z,17.77
2023-05-02T14:36:01.140Z,17.73
2023-05-02T14:38:31.755Z,17.69
2023-05-02T14:41:03.376Z,17.65
2023-05-02T14:43:34.134Z,17.63
2023-05-02T14:46:04.782Z,17.62
2023-05-02T14:48:35.273Z,17.59
2023-05-02T14:51:06.703Z,17.56
2023-05-02T14:53:37.657Z,17.52
2023-05-02T14:56:12.873Z,17.46
2023-05-02T14:58:43.400Z,17.43
2023-05-02T15:01:20.809Z,17.41
2023-05-02T15:04:06.050Z,17.37
2023-05-02T15:06:38.321Z,17.33
2023-05-02T15:09:08.881Z,17.32
2023-05-02T15:11:39.367Z,17.30
2023-05-02T15:14:09.908Z,17.27
2023-05-02T15:16:40.624Z,17.24
2023-05-02T15:19:11.545Z,17.20
2023-05-02T15:21:41.985Z,17.18
2023-05-02T15:24:12.659Z,17.10
2023-05-02T15:26:43.227Z,17.03
2023-05-02T15:29:13.762Z,16.97
2023-05-02T15:31:44.465Z,16.92
2023-05-02T15:34:15.245Z,16.86
2023-05-02T15:36:45.740Z,16.82
2023-05-02T15:39:16.344Z,16.79
2023-05-02T15:41:48.022Z,16.76
2023-05-02T15:44:18.598Z,16.74
2023-05-02T15:46:49.584Z,16.74
2023-05-02T15:49:20.303Z,16.73
2023-05-02T15:51:50.981Z,16.71
2023-05-02T15:54:21.513Z,16.69
2023-05-02T15:56:52.058Z,16.67
2023-05-02T15:59:22.568Z,16.61
2023-05-02T16:01:53.120Z,16.55
2023-05-02T16:04:25.314Z,16.46
2023-05-02T16:06:56.029Z,16.40
2023-05-02T16:09:26.913Z,16.34
2023-05-02T16:11:57.445Z,16.29
2023-05-02T16:14:29.088Z,16.25
2023-05-02T16:16:59.800Z,16.18
2023-05-02T16:19:30.876Z,16.09
2023-05-02T16:22:01.680Z,16.04
2023-05-02T16:24:32.319Z,16.00
2023-05-02T16:27:02.849Z,15.94
2023-05-02T16:29:33.647Z,15.88
2023-05-02T16:32:04.532Z,15.80
2023-05-02T16:34:35.085Z,15.76
2023-05-02T16:37:05.931Z,15.71
2023-05-02T16:39:36.588Z,15.67
2023-05-02T16:42:07.606Z,15.63
2023-05-02T16:44:38.129Z,15.57
2023-05-02T16:47:09.907Z,15.51
2023-05-02T16:49:40.564Z,15.44
2023-05-02T16:52:11.250Z,15.30
2023-05-02T16:54:41.840Z,15.17
2023-05-02T16:57:15.522Z,15.06
2023-05-02T16:59:46.317Z,14.94
2023-05-02T17:02:17.170Z,14.78
2023-05-02T17:04:47.941Z,14.65
2023-05-02T17:07:18.643Z,14.57
2023-05-02T17:09:49.132Z,14.49
2023-05-02T17:12:22.701Z,14.44
2023-05-02T17:14:53.305Z,14.39
2023-05-02T17:17:23.998Z,14.36
2023-05-02T17:19:54.605Z,14.35
2023-05-02T17:22:25.267Z,14.33
2023-05-02T17:24:56.398Z,14.29
2023-05-02T17:27:27.384Z,14.18
2023-05-02T17:29:57.996Z,14.09
2023-05-02T17:32:28.578Z,14.03
2023-05-02T17:34:59.139Z,13.97
2023-05-02T17:37:30.234Z,13.95
2023-05-02T17:40:02.432Z,13.92
2023-05-02T17:42:33.132Z,13.88
2023-05-02T17:45:04.391Z,13.85
2023-05-02T17:47:34.986Z,13.81
2023-05-02T17:50:06.103Z,13.78
2023-05-02T17:52:36.870Z,13.73
2023-05-02T17:55:08.905Z,13.67
2023-05-02T17:57:39.397Z,13.61
2023-05-02T18:00:11.904Z,13.52
2023-05-02T18:02:42.623Z,13.50
2023-05-02T18:05:13.353Z,13.45
2023-05-02T18:07:43.876Z,13.40
2023-05-02T18:10:14.608Z,13.35
2023-05-02T18:12:45.133Z,13.31
2023-05-02T18:15:15.923Z,13.27
2023-05-02T18:17:46.506Z,13.26
2023-05-02T18:20:17.289Z,13.24
2023-05-02T18:22:47.993Z,13.22
2023-05-02T18:25:18.739Z,13.21
2023-05-02T18:27:49.313Z,13.21
2023-05-02T18:30:20.543Z,13.22
2023-05-02T18:32:51.138Z,13.20
2023-05-02T18:35:21.816Z,13.17
2023-05-02T18:37:52.567Z,13.13
2023-05-02T18:40:23.486Z,13.13
2023-05-02T18:42:54.050Z,13.13
2023-05-02T18:45:24.689Z,13.14
2023-05-02T18:47:55.355Z,13.10
2023-05-02T18:50:26.461Z,13.05
2023-05-02T18:52:56.915Z,13.03
2023-05-02T18:55:27.526Z,12.99
2023-05-02T18:57:58.005Z,12.94
2023-05-02T19:00:31.495Z,12.94
2023-05-02T19:03:03.000Z,12.95
2023-05-02T19:05:34.933Z,12.95
2023-05-02T19:08:06.430Z,12.89
2023-05-02T19:10:37.088Z,12.85
2023-05-02T19:13:07.617Z,12.83
2023-05-02T19:15:38.355Z,12.80
2023-05-02T19:18:09.049Z,12.76
2023-05-02T19:20:39.836Z,12.68
2023-05-02T19:23:19.522Z,12.64
2023-05-02T19:25:51.101Z,12.63
2023-05-02T19:28:22.999Z,12.61
2023-05-02T19:30:54.824Z,12.60
2023-05-02T19:33:25.382Z,12.58
2023-05-02T19:35:56.532Z,12.54
2023-05-02T19:38:26.983Z,12.51
2023-05-02T19:40:57.522Z,12.46
2023-05-02T19:43:28.046Z,12.43
2023-05-02T19:45:58.977Z,12.43
2023-05-02T19:48:29.565Z,12.43
2023-05-02T19:51:02.279Z,12.39
2023-05-02T19:53:33.291Z,12.36
2023-05-02T19:56:04.862Z,12.34
2023-05-02T19:58:35.639Z,12.33
2023-05-02T20:01:06.207Z,12.32
2023-05-02T20:03:36.928Z,12.33
2023-05-02T20:06:07.602Z,12.33
2023-05-02T20:08:38.142Z,12.32
2023-05-02T20:11:08.673Z,12.30
2023-05-02T20:13:39.466Z,12.31
2023-05-02T20:16:10.721Z,12.30
2023-05-02T20:18:41.556Z,12.30
2023-05-02T20:21:12.106Z,12.30
2023-05-02T20:23:43.665Z,12.28
2023-05-02T20:26:16.467Z,12.25
2023-05-02T20:28:47.026Z,12.24
2023-05-02T20:31:17.677Z,12.24
2023-05-02T20:33:48.200Z,12.22
2023-05-02T20:36:19.063Z,12.20
2023-05-02T20:38:49.570Z,12.17
2023-05-02T20:41:20.395Z,12.15
2023-05-02T20:43:51.774Z,12.08
2023-05-02T20:46:22.856Z,12.00
2023-05-02T20:48:53.734Z,11.97
2023-05-02T20:51:24.333Z,11.93
2023-05-02T20:53:54.825Z,11.94
2023-05-02T20:56:26.248Z,11.94
2023-05-02T20:58:56.991Z,11.95
2023-05-02T21:01:27.978Z,11.95
2023-05-02T21:03:58.525Z,11.94
2023-05-02T21:06:29.144Z,11.93
2023-05-02T21:09:01.391Z,11.92
2023-05-02T21:11:32.029Z,11.92
2023-05-02T21:14:02.585Z,11.92
2023-05-02T21:16:33.196Z,11.92
2023-05-02T21:19:04.132Z,11.91
2023-05-02T21:21:34.652Z,11.85
2023-05-02T21:24:05.430Z,11.83
2023-05-02T21:26:35.991Z,11.81
2023-05-02T21:29:06.953Z,11.82
2023-05-02T21:31:39.234Z,11.82
2023-05-02T21:34:09.951Z,11.84
2023-05-02T21:36:42.183Z,11.85
2023-05-02T21:39:12.740Z,11.83
2023-05-02T21:41:43.456Z,11.84
2023-05-02T21:44:14.454Z,11.86
2023-05-02T21:46:47.157Z,11.87
2023-05-02T21:49:17.827Z,11.90
2023-05-02T21:51:48.352Z,11.90
2023-05-02T21:54:18.881Z,11.90
2023-05-02T21:56:49.476Z,11.89
2023-05-02T21:59:20.058Z,11.88
2023-05-02T22:01:50.864Z,11.87
2023-05-02T22:04:21.431Z,11.86
2023-05-02T22:06:52.999Z,11.87
2023-05-02T22:09:23.790Z,11.85
2023-05-02T22:11:54.650Z,11.84
2023-05-02T22:14:33.735Z,11.83
2023-05-02T22:17:12.319Z,11.83
2023-05-02T22:19:42.981Z,11.83
2023-05-02T22:22:13.666Z,11.81
2023-05-02T22:24:44.245Z,11.81
2023-05-02T22:27:14.921Z,11.81
2023-05-02T22:29:45.573Z,11.81
2023-05-02T22:32:16.212Z,11.80
2023-05-02T22:34:46.821Z,11.78
2023-05-02T22:37:17.442Z,11.77
2023-05-02T22:39:47.992Z,11.78
2023-05-02T22:42:18.497Z,11.77
2023-05-02T22:44:54.331Z,11.78
2023-05-02T22:47:25.288Z,11.78
2023-05-02T22:49:56.920Z,11.76
2023-05-02T22:52:28.437Z,11.77
2023-05-02T22:54:59.146Z,11.76
2023-05-02T22:57:29.832Z,11.76
2023-05-02T23:00:00.514Z,11.75
2023-05-02T23:02:31.482Z,11.75
2023-05-02T23:05:02.601Z,11.75
2023-05-02T23:07:33.276Z,11.74
2023-05-02T23:10:04.199Z,11.73
2023-05-02T23:12:35.076Z,11.72
2023-05-02T23:15:06.588Z,11.70
2023-05-02T23:17:39.872Z,11.68
2023-05-02T23:20:11.696Z,11.67
2023-05-02T23:22:46.433Z,11.65
2023-05-02T23:25:17.019Z,11.62
2023-05-02T23:27:47.631Z,11.60
2023-05-02T23:30:18.083Z,11.59
2023-05-02T23:32:48.674Z,11.58
2023-05-02T23:35:19.506Z,11.57
2023-05-02T23:37:50.460Z,11.56
2023-05-02T23:40:21.147Z,11.56
2023-05-02T23:42:51.857Z,11.55
2023-05-02T23:45:22.409Z,11.54
2023-05-02T23:47:53.006Z,11.54
2023-05-02T23:50:23.921Z,11.53
2023-05-02T23:52:54.638Z,11.52
2023-05-02T23:55:25.265Z,11.53
2023-05-02T23:57:55.819Z,11.53
